Back to Top

Language: 

My Weather Underground Personal Weather Station Historical Data with Graphs...

Delerius Weather Station Historical Data
Daily Summary for April 8, 2017 Units:  Both    English   Metric
« Previous Day
Next Day »
Daily Weekly Monthly Yearly Custom
  High: Low: Average:
Temperature: 68.4 °F /  20.2 °C 31.8 °F /  -0.1 °C 51.1 °F /  10.6 °C
Dew Point: 49.7 °F /  9.8 °C 30.3 °F /  -0.9 °C 40.6 °F /  4.8 °C
Humidity: 97 % 41 % 71 %
Wind Speed: 10.0 mph /  16.1 km/h - 2.4 mph /  3.9 km/h
Wind Gust: 18.0 mph /  29 km/h - -
Wind:- - South
Pressure: 30.28 in /  1025.3 hPa 30.11 in /  1019.5 hPa -
Precipitation: 0.00 in /  0 mm    
Historical Graphs
 
 
Tabular Data for April 8, 2017
Time Temperature Dew Point Pressure Wind Wind Speed Wind Gust Humidity Rainfall Rate (Hourly) solar Conditions
00:01 37.9 °F /  3.3 °C 34.7 °F /  1.5 °C 30.28 in /  1025.3 hPa Calm     88 % 0.00 in /  0 mm 0 W/m2
00:06 37.9 °F /  3.3 °C 35.0 °F /  1.7 °C 30.28 in /  1025.3 hPa Calm     89 % 0.00 in /  0 mm 0 W/m2
00:11 37.8 °F /  3.2 °C 34.8 °F /  1.6 °C 30.28 in /  1025.3 hPa Calm     89 % 0.00 in /  0 mm 0 W/m2
00:16 37.6 °F /  3.1 °C 34.6 °F /  1.4 °C 30.28 in /  1025.3 hPa Calm     89 % 0.00 in /  0 mm 0 W/m2
00:21 37.4 °F /  3 °C 34.5 °F /  1.4 °C 30.28 in /  1025.3 hPa Calm     89 % 0.00 in /  0 mm 0 W/m2
00:26 37.4 °F /  3 °C 34.5 °F /  1.4 °C 30.28 in /  1025.3 hPa Calm     89 % 0.00 in /  0 mm 0 W/m2
00:31 37.2 °F /  2.9 °C 34.3 °F /  1.3 °C 30.27 in /  1024.9 hPa Calm     89 % 0.00 in /  0 mm 0 W/m2
00:36 37.2 °F /  2.9 °C 34.6 °F /  1.4 °C 30.28 in /  1025.3 hPa Calm     90 % 0.00 in /  0 mm 0 W/m2
00:41 37.0 °F /  2.8 °C 34.4 °F /  1.3 °C 30.27 in /  1024.9 hPa Calm     90 % 0.00 in /  0 mm 0 W/m2
00:46 37.0 °F /  2.8 °C 34.4 °F /  1.3 °C 30.27 in /  1024.9 hPa Calm     90 % 0.00 in /  0 mm 0 W/m2
00:51 36.9 °F /  2.7 °C 34.2 °F /  1.2 °C 30.27 in /  1024.9 hPa Calm   1.0 mph /  1.6 km/h 90 % 0.00 in /  0 mm 0 W/m2
00:56 36.7 °F /  2.6 °C 34.0 °F /  1.1 °C 30.27 in /  1024.9 hPa Calm   1.0 mph /  1.6 km/h 90 % 0.00 in /  0 mm 0 W/m2
01:01 36.7 °F /  2.6 °C 34.0 °F /  1.1 °C 30.27 in /  1024.9 hPa Calm   1.0 mph /  1.6 km/h 90 % 0.00 in /  0 mm 0 W/m2
01:06 36.7 °F /  2.6 °C 34.3 °F /  1.3 °C 30.27 in /  1024.9 hPa Calm     91 % 0.00 in /  0 mm 0 W/m2
01:11 36.7 °F /  2.6 °C 34.3 °F /  1.3 °C 30.27 in /  1024.9 hPa Calm     91 % 0.00 in /  0 mm 0 W/m2
01:16 36.5 °F /  2.5 °C 34.1 °F /  1.2 °C 30.27 in /  1024.9 hPa Calm     91 % 0.00 in /  0 mm 0 W/m2
01:21 36.3 °F /  2.4 °C 33.9 °F /  1.1 °C 30.27 in /  1024.9 hPa Calm     91 % 0.00 in /  0 mm 0 W/m2
01:26 36.3 °F /  2.4 °C 33.9 °F /  1.1 °C 30.26 in /  1024.6 hPa Calm     91 % 0.00 in /  0 mm 0 W/m2
01:31 36.1 °F /  2.3 °C 33.8 °F /  1 °C 30.26 in /  1024.6 hPa Calm     91 % 0.00 in /  0 mm 0 W/m2
01:36 36.0 °F /  2.2 °C 33.6 °F /  0.9 °C 30.26 in /  1024.6 hPa Calm     91 % 0.00 in /  0 mm 0 W/m2
01:41 35.8 °F /  2.1 °C 33.4 °F /  0.8 °C 30.26 in /  1024.6 hPa Calm     91 % 0.00 in /  0 mm 0 W/m2
01:46 35.6 °F /  2 °C 33.2 °F /  0.7 °C 30.26 in /  1024.6 hPa Calm     91 % 0.00 in /  0 mm 0 W/m2
01:51 35.4 °F /  1.9 °C 33.1 °F /  0.6 °C 30.26 in /  1024.6 hPa Calm     91 % 0.00 in /  0 mm 0 W/m2
01:56 35.2 °F /  1.8 °C 32.9 °F /  0.5 °C 30.26 in /  1024.6 hPa Calm     91 % 0.00 in /  0 mm 0 W/m2
02:01 35.2 °F /  1.8 °C 32.9 °F /  0.5 °C 30.25 in /  1024.3 hPa Calm     91 % 0.00 in /  0 mm 0 W/m2
02:06 35.2 °F /  1.8 °C 32.9 °F /  0.5 °C 30.25 in /  1024.3 hPa Calm     91 % 0.00 in /  0 mm 0 W/m2
02:11 35.1 °F /  1.7 °C 33.0 °F /  0.6 °C 30.25 in /  1024.3 hPa Calm     92 % 0.00 in /  0 mm 0 W/m2
02:16 35.1 °F /  1.7 °C 33.0 °F /  0.6 °C 30.25 in /  1024.3 hPa Calm     92 % 0.00 in /  0 mm 0 W/m2
02:17 35.1 °F /  1.7 °C 33.0 °F /  0.6 °C 30.25 in /  1024.3 hPa Calm     92 % 0.00 in /  0 mm 0 W/m2
02:22 35.1 °F /  1.7 °C 33.0 °F /  0.6 °C 30.25 in /  1024.3 hPa Calm     92 % 0.00 in /  0 mm 0 W/m2
02:27 34.9 °F /  1.6 °C 32.8 °F /  0.4 °C 30.25 in /  1024.3 hPa Calm     92 % 0.00 in /  0 mm 0 W/m2
02:37 34.9 °F /  1.6 °C 32.8 °F /  0.4 °C 30.25 in /  1024.3 hPa Calm     92 % 0.00 in /  0 mm 0 W/m2
02:38 34.7 °F /  1.5 °C 32.6 °F /  0.3 °C 30.25 in /  1024.3 hPa Calm     92 % 0.00 in /  0 mm 0 W/m2
02:43 34.7 °F /  1.5 °C 32.6 °F /  0.3 °C 30.25 in /  1024.3 hPa Calm     92 % 0.00 in /  0 mm 0 W/m2
02:48 34.5 °F /  1.4 °C 32.4 °F /  0.2 °C 30.25 in /  1024.3 hPa Calm     92 % 0.00 in /  0 mm 0 W/m2
02:53 34.3 °F /  1.3 °C 32.3 °F /  0.2 °C 30.25 in /  1024.3 hPa Calm     92 % 0.00 in /  0 mm 0 W/m2
02:58 34.3 °F /  1.3 °C 32.3 °F /  0.2 °C 30.25 in /  1024.3 hPa Calm     92 % 0.00 in /  0 mm 0 W/m2
03:03 34.3 °F /  1.3 °C 32.3 °F /  0.2 °C 30.24 in /  1023.9 hPa Calm     92 % 0.00 in /  0 mm 0 W/m2
03:08 34.2 °F /  1.2 °C 32.1 °F /  0.1 °C 30.24 in /  1023.9 hPa Calm     92 % 0.00 in /  0 mm 0 W/m2
03:13 34.2 °F /  1.2 °C 32.1 °F /  0.1 °C 30.24 in /  1023.9 hPa Calm     92 % 0.00 in /  0 mm 0 W/m2
03:18 34.2 °F /  1.2 °C 32.3 °F /  0.2 °C 30.24 in /  1023.9 hPa Calm     93 % 0.00 in /  0 mm 0 W/m2
03:23 34.2 °F /  1.2 °C 32.3 °F /  0.2 °C 30.24 in /  1023.9 hPa Calm     93 % 0.00 in /  0 mm 0 W/m2
03:28 34.2 °F /  1.2 °C 32.3 °F /  0.2 °C 30.24 in /  1023.9 hPa Calm     93 % 0.00 in /  0 mm 0 W/m2
03:33 34.2 °F /  1.2 °C 32.3 °F /  0.2 °C 30.24 in /  1023.9 hPa Calm     93 % 0.00 in /  0 mm 0 W/m2
03:38 34.2 °F /  1.2 °C 32.3 °F /  0.2 °C 30.24 in /  1023.9 hPa Calm     93 % 0.00 in /  0 mm 0 W/m2
03:43 34.0 °F /  1.1 °C 32.2 °F /  0.1 °C 30.24 in /  1023.9 hPa Calm     93 % 0.00 in /  0 mm 0 W/m2
03:48 34.0 °F /  1.1 °C 32.2 °F /  0.1 °C 30.24 in /  1023.9 hPa Calm     93 % 0.00 in /  0 mm 0 W/m2
03:53 33.8 °F /  1 °C 32.0 °F /  0 °C 30.24 in /  1023.9 hPa Calm     93 % 0.00 in /  0 mm 0 W/m2
03:58 33.6 °F /  0.9 °C 31.8 °F /  -0.1 °C 30.23 in /  1023.6 hPa Calm     93 % 0.00 in /  0 mm 0 W/m2
04:03 33.6 °F /  0.9 °C 31.8 °F /  -0.1 °C 30.23 in /  1023.6 hPa Calm     93 % 0.00 in /  0 mm 0 W/m2
04:08 33.6 °F /  0.9 °C 31.8 °F /  -0.1 °C 30.23 in /  1023.6 hPa Calm     93 % 0.00 in /  0 mm 0 W/m2
04:13 33.4 °F /  0.8 °C 31.6 °F /  -0.2 °C 30.23 in /  1023.6 hPa Calm     93 % 0.00 in /  0 mm 0 W/m2
04:19 33.4 °F /  0.8 °C 31.6 °F /  -0.2 °C 30.23 in /  1023.6 hPa Calm     93 % 0.00 in /  0 mm 0 W/m2
04:24 33.4 °F /  0.8 °C 31.6 °F /  -0.2 °C 30.23 in /  1023.6 hPa Calm     93 % 0.00 in /  0 mm 0 W/m2
04:29 33.4 °F /  0.8 °C 31.6 °F /  -0.2 °C 30.23 in /  1023.6 hPa Calm     93 % 0.00 in /  0 mm 0 W/m2
04:34 33.4 °F /  0.8 °C 31.6 °F /  -0.2 °C 30.23 in /  1023.6 hPa Calm     93 % 0.00 in /  0 mm 0 W/m2
04:39 33.3 °F /  0.7 °C 31.5 °F /  -0.3 °C 30.23 in /  1023.6 hPa Calm     93 % 0.00 in /  0 mm 0 W/m2
04:44 33.1 °F /  0.6 °C 31.3 °F /  -0.4 °C 30.23 in /  1023.6 hPa Calm     93 % 0.00 in /  0 mm 0 W/m2
04:49 33.1 °F /  0.6 °C 31.3 °F /  -0.4 °C 30.22 in /  1023.2 hPa Calm     93 % 0.00 in /  0 mm 0 W/m2
04:54 32.9 °F /  0.5 °C 31.1 °F /  -0.5 °C 30.22 in /  1023.2 hPa Calm     93 % 0.00 in /  0 mm 0 W/m2
04:59 32.9 °F /  0.5 °C 31.1 °F /  -0.5 °C 30.22 in /  1023.2 hPa Calm     93 % 0.00 in /  0 mm 0 W/m2
05:04 32.7 °F /  0.4 °C 30.9 °F /  -0.6 °C 30.22 in /  1023.2 hPa Calm     93 % 0.00 in /  0 mm 0 W/m2
05:09 32.7 °F /  0.4 °C 30.9 °F /  -0.6 °C 30.22 in /  1023.2 hPa Calm     93 % 0.00 in /  0 mm 0 W/m2
05:19 32.5 °F /  0.3 °C 30.7 °F /  -0.7 °C 30.22 in /  1023.2 hPa Calm     93 % 0.00 in /  0 mm 0 W/m2
05:24 32.5 °F /  0.3 °C 31.0 °F /  -0.6 °C 30.22 in /  1023.2 hPa Calm     94 % 0.00 in /  0 mm 0 W/m2
05:29 32.5 °F /  0.3 °C 31.0 °F /  -0.6 °C 30.23 in /  1023.6 hPa Calm     94 % 0.00 in /  0 mm 0 W/m2
05:34 32.5 °F /  0.3 °C 31.0 °F /  -0.6 °C 30.23 in /  1023.6 hPa Calm     94 % 0.00 in /  0 mm 0 W/m2
05:39 32.4 °F /  0.2 °C 30.8 °F /  -0.7 °C 30.23 in /  1023.6 hPa Calm     94 % 0.00 in /  0 mm 0 W/m2
05:44 32.4 °F /  0.2 °C 30.8 °F /  -0.7 °C 30.23 in /  1023.6 hPa Calm     94 % 0.00 in /  0 mm 0 W/m2
05:49 32.4 °F /  0.2 °C 30.8 °F /  -0.7 °C 30.23 in /  1023.6 hPa Calm     94 % 0.00 in /  0 mm 0 W/m2
05:54 32.4 °F /  0.2 °C 30.8 °F /  -0.7 °C 30.23 in /  1023.6 hPa Calm     94 % 0.00 in /  0 mm 0 W/m2
05:59 32.2 °F /  0.1 °C 30.6 °F /  -0.8 °C 30.23 in /  1023.6 hPa Calm     94 % 0.00 in /  0 mm 0 W/m2
06:04 32.2 °F /  0.1 °C 30.6 °F /  -0.8 °C 30.23 in /  1023.6 hPa Calm     94 % 0.00 in /  0 mm 0 W/m2
06:09 32.2 °F /  0.1 °C 30.6 °F /  -0.8 °C 30.23 in /  1023.6 hPa Calm     94 % 0.00 in /  0 mm 0 W/m2
06:14 32.2 °F /  0.1 °C 30.6 °F /  -0.8 °C 30.23 in /  1023.6 hPa Calm     94 % 0.00 in /  0 mm 0 W/m2
06:19 32.0 °F /  0 °C 30.5 °F /  -0.8 °C 30.23 in /  1023.6 hPa Calm     94 % 0.00 in /  0 mm 0 W/m2
06:24 31.8 °F /  -0.1 °C 30.3 °F /  -0.9 °C 30.23 in /  1023.6 hPa Calm     94 % 0.00 in /  0 mm 5 W/m2
06:29 32.0 °F /  0 °C 30.5 °F /  -0.8 °C 30.23 in /  1023.6 hPa Calm     94 % 0.00 in /  0 mm 7 W/m2
06:34 32.2 °F /  0.1 °C 30.6 °F /  -0.8 °C 30.23 in /  1023.6 hPa Calm     94 % 0.00 in /  0 mm 9 W/m2
06:40 32.0 °F /  0 °C 30.5 °F /  -0.8 °C 30.23 in /  1023.6 hPa Calm     94 % 0.00 in /  0 mm 12 W/m2
06:45 32.0 °F /  0 °C 30.5 °F /  -0.8 °C 30.23 in /  1023.6 hPa Calm     94 % 0.00 in /  0 mm 16 W/m2
06:50 32.0 °F /  0 °C 30.5 °F /  -0.8 °C 30.23 in /  1023.6 hPa Calm     94 % 0.00 in /  0 mm 19 W/m2
06:55 32.0 °F /  0 °C 30.5 °F /  -0.8 °C 30.23 in /  1023.6 hPa Calm     94 % 0.00 in /  0 mm 23 W/m2
06:56 32.0 °F /  0 °C 30.5 °F /  -0.8 °C 30.23 in /  1023.6 hPa Calm     94 % 0.00 in /  0 mm 23 W/m2
07:01 32.0 °F /  0 °C 30.7 °F /  -0.7 °C 30.23 in /  1023.6 hPa Calm     95 % 0.00 in /  0 mm 35 W/m2
07:06 32.2 °F /  0.1 °C 30.9 °F /  -0.6 °C 30.23 in /  1023.6 hPa Calm     95 % 0.00 in /  0 mm 35 W/m2
07:11 32.2 °F /  0.1 °C 30.9 °F /  -0.6 °C 30.23 in /  1023.6 hPa Calm     95 % 0.00 in /  0 mm 33 W/m2
07:13 32.4 °F /  0.2 °C 31.1 °F /  -0.5 °C 30.23 in /  1023.6 hPa Calm     95 % 0.00 in /  0 mm 33 W/m2
07:18 32.4 °F /  0.2 °C 31.1 °F /  -0.5 °C 30.23 in /  1023.6 hPa Calm     95 % 0.00 in /  0 mm 37 W/m2
07:23 32.5 °F /  0.3 °C 31.3 °F /  -0.4 °C 30.22 in /  1023.2 hPa Calm     95 % 0.00 in /  0 mm 40 W/m2
07:28 32.9 °F /  0.5 °C 31.6 °F /  -0.2 °C 30.22 in /  1023.2 hPa Calm     95 % 0.00 in /  0 mm 44 W/m2
07:33 33.3 °F /  0.7 °C 32.2 °F /  0.1 °C 30.22 in /  1023.2 hPa Calm     96 % 0.00 in /  0 mm 47 W/m2
07:38 33.6 °F /  0.9 °C 32.3 °F /  0.2 °C 30.23 in /  1023.6 hPa Calm     95 % 0.00 in /  0 mm 54 W/m2
07:43 34.0 °F /  1.1 °C 33.0 °F /  0.6 °C 30.23 in /  1023.6 hPa Calm     96 % 0.00 in /  0 mm 63 W/m2
07:48 34.3 °F /  1.3 °C 33.3 °F /  0.7 °C 30.23 in /  1023.6 hPa Calm     96 % 0.00 in /  0 mm 54 W/m2
07:53 34.9 °F /  1.6 °C 33.9 °F /  1.1 °C 30.23 in /  1023.6 hPa Calm     96 % 0.00 in /  0 mm 56 W/m2
07:58 35.2 °F /  1.8 °C 34.2 °F /  1.2 °C 30.23 in /  1023.6 hPa Calm     96 % 0.00 in /  0 mm 174 W/m2
08:03 35.8 °F /  2.1 °C 34.8 °F /  1.6 °C 30.23 in /  1023.6 hPa Calm     96 % 0.00 in /  0 mm 190 W/m2
08:08 36.3 °F /  2.4 °C 35.3 °F /  1.8 °C 30.23 in /  1023.6 hPa Calm     96 % 0.00 in /  0 mm 206 W/m2
08:14 37.2 °F /  2.9 °C 36.4 °F /  2.4 °C 30.23 in /  1023.6 hPa Calm     97 % 0.00 in /  0 mm 216 W/m2
08:19 37.9 °F /  3.3 °C 36.9 °F /  2.7 °C 30.23 in /  1023.6 hPa Calm     96 % 0.00 in /  0 mm 232 W/m2
08:24 38.7 °F /  3.7 °C 37.6 °F /  3.1 °C 30.23 in /  1023.6 hPa Calm     96 % 0.00 in /  0 mm 246 W/m2
08:29 39.4 °F /  4.1 °C 38.3 °F /  3.5 °C 30.23 in /  1023.6 hPa Calm     96 % 0.00 in /  0 mm 258 W/m2
08:34 39.9 °F /  4.4 °C 38.6 °F /  3.7 °C 30.23 in /  1023.6 hPa Calm     95 % 0.00 in /  0 mm 272 W/m2
08:44 41.4 °F /  5.2 °C 39.8 °F /  4.3 °C 30.22 in /  1023.2 hPa Calm   1.0 mph /  1.6 km/h 94 % 0.00 in /  0 mm 304 W/m2
08:49 41.9 °F /  5.5 °C 40.0 °F /  4.4 °C 30.22 in /  1023.2 hPa Calm     93 % 0.00 in /  0 mm 318 W/m2
08:54 42.4 °F /  5.8 °C 40.3 °F /  4.6 °C 30.22 in /  1023.2 hPa Calm     92 % 0.00 in /  0 mm 334 W/m2
08:59 43.3 °F /  6.3 °C 40.9 °F /  4.9 °C 30.22 in /  1023.2 hPa Calm   2.0 mph /  3.2 km/h 91 % 0.00 in /  0 mm 348 W/m2
09:04 44.4 °F /  6.9 °C 41.7 °F /  5.4 °C 30.22 in /  1023.2 hPa Calm   2.0 mph /  3.2 km/h 90 % 0.00 in /  0 mm 369 W/m2
09:09 45.3 °F /  7.4 °C 42.0 °F /  5.6 °C 30.22 in /  1023.2 hPa Calm   2.0 mph /  3.2 km/h 88 % 0.00 in /  0 mm 381 W/m2
09:14 46.4 °F /  8 °C 42.1 °F /  5.6 °C 30.22 in /  1023.2 hPa ESE 1.0 mph /  1.6 km/h 2.0 mph /  3.2 km/h 85 % 0.00 in /  0 mm 394 W/m2
09:19 47.3 °F /  8.5 °C 42.7 °F /  5.9 °C 30.22 in /  1023.2 hPa ESE 1.0 mph /  1.6 km/h 2.0 mph /  3.2 km/h 84 % 0.00 in /  0 mm 415 W/m2
09:24 48.0 °F /  8.9 °C 42.8 °F /  6 °C 30.22 in /  1023.2 hPa Calm   2.0 mph /  3.2 km/h 82 % 0.00 in /  0 mm 425 W/m2
09:29 48.7 °F /  9.3 °C 42.8 °F /  6 °C 30.22 in /  1023.2 hPa Calm   2.0 mph /  3.2 km/h 80 % 0.00 in /  0 mm 441 W/m2
09:34 49.6 °F /  9.8 °C 43.4 °F /  6.3 °C 30.23 in /  1023.6 hPa Calm   2.0 mph /  3.2 km/h 79 % 0.00 in /  0 mm 454 W/m2
09:39 50.5 °F /  10.3 °C 43.3 °F /  6.3 °C 30.22 in /  1023.2 hPa Calm   4.0 mph /  6.4 km/h 76 % 0.00 in /  0 mm 468 W/m2
09:44 51.3 °F /  10.7 °C 44.0 °F /  6.7 °C 30.22 in /  1023.2 hPa Calm   4.0 mph /  6.4 km/h 76 % 0.00 in /  0 mm 480 W/m2
09:49 52.0 °F /  11.1 °C 43.9 °F /  6.6 °C 30.22 in /  1023.2 hPa ESE 1.0 mph /  1.6 km/h 4.0 mph /  6.4 km/h 74 % 0.00 in /  0 mm 494 W/m2
09:54 52.3 °F /  11.3 °C 43.9 °F /  6.6 °C 30.22 in /  1023.2 hPa ESE 1.0 mph /  1.6 km/h 4.0 mph /  6.4 km/h 73 % 0.00 in /  0 mm 510 W/m2
09:59 52.5 °F /  11.4 °C 43.8 °F /  6.6 °C 30.22 in /  1023.2 hPa ESE 1.0 mph /  1.6 km/h 4.0 mph /  6.4 km/h 72 % 0.00 in /  0 mm 519 W/m2
10:04 53.1 °F /  11.7 °C 44.6 °F /  7 °C 30.22 in /  1023.2 hPa ESE 1.0 mph /  1.6 km/h 4.0 mph /  6.4 km/h 73 % 0.00 in /  0 mm 531 W/m2
10:09 53.4 °F /  11.9 °C 44.6 °F /  7 °C 30.22 in /  1023.2 hPa ESE 1.0 mph /  1.6 km/h 6.0 mph /  9.7 km/h 72 % 0.00 in /  0 mm 543 W/m2
10:14 53.8 °F /  12.1 °C 45.3 °F /  7.4 °C 30.22 in /  1023.2 hPa ESE 2.0 mph /  3.2 km/h 6.0 mph /  9.7 km/h 73 % 0.00 in /  0 mm 552 W/m2
10:19 54.1 °F /  12.3 °C 45.3 °F /  7.4 °C 30.22 in /  1023.2 hPa ESE 1.0 mph /  1.6 km/h 6.0 mph /  9.7 km/h 72 % 0.00 in /  0 mm 559 W/m2
10:24 54.9 °F /  12.7 °C 45.6 °F /  7.6 °C 30.22 in /  1023.2 hPa ESE 2.0 mph /  3.2 km/h 5.0 mph /  8 km/h 71 % 0.00 in /  0 mm 570 W/m2
10:29 55.2 °F /  12.9 °C 46.0 °F /  7.8 °C 30.22 in /  1023.2 hPa ESE 2.0 mph /  3.2 km/h 5.0 mph /  8 km/h 71 % 0.00 in /  0 mm 580 W/m2
10:34 55.8 °F /  13.2 °C 46.1 °F /  7.8 °C 30.22 in /  1023.2 hPa East 1.0 mph /  1.6 km/h 5.0 mph /  8 km/h 70 % 0.00 in /  0 mm 594 W/m2
10:39 56.3 °F /  13.5 °C 46.6 °F /  8.1 °C 30.22 in /  1023.2 hPa ESE 1.0 mph /  1.6 km/h 7.0 mph /  11.3 km/h 70 % 0.00 in /  0 mm 608 W/m2
10:45 56.7 °F /  13.7 °C 46.6 °F /  8.1 °C 30.22 in /  1023.2 hPa ESE 2.0 mph /  3.2 km/h 7.0 mph /  11.3 km/h 69 % 0.00 in /  0 mm 619 W/m2
10:50 56.8 °F /  13.8 °C 46.8 °F /  8.2 °C 30.21 in /  1022.9 hPa East 3.0 mph /  4.8 km/h 6.0 mph /  9.7 km/h 69 % 0.00 in /  0 mm 624 W/m2
10:51 56.8 °F /  13.8 °C 46.4 °F /  8 °C 30.21 in /  1022.9 hPa East 2.0 mph /  3.2 km/h 6.0 mph /  9.7 km/h 68 % 0.00 in /  0 mm 624 W/m2
10:56 57.0 °F /  13.9 °C 46.9 °F /  8.3 °C 30.21 in /  1022.9 hPa East 2.0 mph /  3.2 km/h 6.0 mph /  9.7 km/h 69 % 0.00 in /  0 mm 636 W/m2
11:01 57.4 °F /  14.1 °C 46.9 °F /  8.3 °C 30.21 in /  1022.9 hPa ESE 3.0 mph /  4.8 km/h 9.0 mph /  14.5 km/h 68 % 0.00 in /  0 mm 640 W/m2
11:06 57.7 °F /  14.3 °C 47.6 °F /  8.7 °C 30.21 in /  1022.9 hPa ESE 4.0 mph /  6.4 km/h 9.0 mph /  14.5 km/h 69 % 0.00 in /  0 mm 649 W/m2
11:11 58.3 °F /  14.6 °C 47.4 °F /  8.6 °C 30.21 in /  1022.9 hPa East 3.0 mph /  4.8 km/h 6.0 mph /  9.7 km/h 67 % 0.00 in /  0 mm 656 W/m2
11:14 58.3 °F /  14.6 °C 47.4 °F /  8.6 °C 30.20 in /  1022.6 hPa ENE 2.0 mph /  3.2 km/h 6.0 mph /  9.7 km/h 67 % 0.00 in /  0 mm 661 W/m2
11:19 58.3 °F /  14.6 °C 47.4 °F /  8.6 °C 30.20 in /  1022.6 hPa ENE 3.0 mph /  4.8 km/h 7.0 mph /  11.3 km/h 67 % 0.00 in /  0 mm 647 W/m2
11:20 58.3 °F /  14.6 °C 47.8 °F /  8.8 °C 30.20 in /  1022.6 hPa ENE 3.0 mph /  4.8 km/h 7.0 mph /  11.3 km/h 68 % 0.00 in /  0 mm 647 W/m2
11:25 58.3 °F /  14.6 °C 48.2 °F /  9 °C 30.20 in /  1022.6 hPa ENE 4.0 mph /  6.4 km/h 7.0 mph /  11.3 km/h 69 % 0.00 in /  0 mm 657 W/m2
11:30 58.8 °F /  14.9 °C 48.3 °F /  9.1 °C 30.20 in /  1022.6 hPa East 3.0 mph /  4.8 km/h 7.0 mph /  11.3 km/h 68 % 0.00 in /  0 mm 664 W/m2
11:35 59.5 °F /  15.3 °C 48.2 °F /  9 °C 30.20 in /  1022.6 hPa East 2.0 mph /  3.2 km/h 5.0 mph /  8 km/h 66 % 0.00 in /  0 mm 679 W/m2
11:40 59.7 °F /  15.4 °C 48.3 °F /  9.1 °C 30.19 in /  1022.2 hPa NE 3.0 mph /  4.8 km/h 10.0 mph /  16.1 km/h 66 % 0.00 in /  0 mm 693 W/m2
11:45 59.7 °F /  15.4 °C 48.3 °F /  9.1 °C 30.19 in /  1022.2 hPa NE 3.0 mph /  4.8 km/h 10.0 mph /  16.1 km/h 66 % 0.00 in /  0 mm 680 W/m2
11:46 60.1 °F /  15.6 °C 49.1 °F /  9.5 °C 30.19 in /  1022.2 hPa NE 3.0 mph /  4.8 km/h 10.0 mph /  16.1 km/h 67 % 0.00 in /  0 mm 689 W/m2
11:51 60.6 °F /  15.9 °C 48.8 °F /  9.3 °C 30.19 in /  1022.2 hPa East 2.0 mph /  3.2 km/h 6.0 mph /  9.7 km/h 65 % 0.00 in /  0 mm 703 W/m2
11:56 61.0 °F /  16.1 °C 48.7 °F /  9.3 °C 30.19 in /  1022.2 hPa ENE 3.0 mph /  4.8 km/h 6.0 mph /  9.7 km/h 64 % 0.00 in /  0 mm 694 W/m2
12:01 61.2 °F /  16.2 °C 48.5 °F /  9.2 °C 30.19 in /  1022.2 hPa ENE 4.0 mph /  6.4 km/h 7.0 mph /  11.3 km/h 63 % 0.00 in /  0 mm 719 W/m2
12:06 61.3 °F /  16.3 °C 48.6 °F /  9.2 °C 30.19 in /  1022.2 hPa East 3.0 mph /  4.8 km/h 7.0 mph /  11.3 km/h 63 % 0.00 in /  0 mm 731 W/m2
12:11 61.9 °F /  16.6 °C 49.1 °F /  9.5 °C 30.18 in /  1021.9 hPa ESE 2.0 mph /  3.2 km/h 6.0 mph /  9.7 km/h 63 % 0.00 in /  0 mm 710 W/m2
12:16 62.4 °F /  16.9 °C 49.7 °F /  9.8 °C 30.18 in /  1021.9 hPa ESE 1.0 mph /  1.6 km/h 5.0 mph /  8 km/h 63 % 0.00 in /  0 mm 721 W/m2
12:19 63.0 °F /  17.2 °C 49.3 °F /  9.6 °C 30.18 in /  1021.9 hPa East 2.0 mph /  3.2 km/h 7.0 mph /  11.3 km/h 61 % 0.00 in /  0 mm 722 W/m2
12:24 63.0 °F /  17.2 °C 48.4 °F /  9.1 °C 30.18 in /  1021.9 hPa NE 2.0 mph /  3.2 km/h 7.0 mph /  11.3 km/h 59 % 0.00 in /  0 mm 744 W/m2
12:29 63.3 °F /  17.4 °C 48.7 °F /  9.3 °C 30.18 in /  1021.9 hPa NE 2.0 mph /  3.2 km/h 7.0 mph /  11.3 km/h 59 % 0.00 in /  0 mm 738 W/m2
12:34 63.9 °F /  17.7 °C 49.2 °F /  9.6 °C 30.17 in /  1021.6 hPa East 2.0 mph /  3.2 km/h 6.0 mph /  9.7 km/h 59 % 0.00 in /  0 mm 749 W/m2
12:40 64.2 °F /  17.9 °C 48.7 °F /  9.3 °C 30.17 in /  1021.6 hPa SE 2.0 mph /  3.2 km/h 9.0 mph /  14.5 km/h 57 % 0.00 in /  0 mm 758 W/m2
12:45 64.8 °F /  18.2 °C 48.2 °F /  9 °C 30.17 in /  1021.6 hPa SSW 4.0 mph /  6.4 km/h 12.0 mph /  19.3 km/h 55 % 0.00 in /  0 mm 751 W/m2
12:50 65.1 °F /  18.4 °C 49.0 °F /  9.4 °C 30.17 in /  1021.6 hPa SSW 5.0 mph /  8 km/h 12.0 mph /  19.3 km/h 56 % 0.00 in /  0 mm 763 W/m2
12:55 65.7 °F /  18.7 °C 47.0 °F /  8.3 °C 30.17 in /  1021.6 hPa SSW 6.0 mph /  9.7 km/h 12.0 mph /  19.3 km/h 51 % 0.00 in /  0 mm 773 W/m2
13:00 65.8 °F /  18.8 °C 45.6 °F /  7.6 °C 30.17 in /  1021.6 hPa SSW 7.0 mph /  11.3 km/h 12.0 mph /  19.3 km/h 48 % 0.00 in /  0 mm 775 W/m2
13:05 65.8 °F /  18.8 °C 45.0 °F /  7.2 °C 30.17 in /  1021.6 hPa SSW 6.0 mph /  9.7 km/h 11.0 mph /  17.7 km/h 47 % 0.00 in /  0 mm 763 W/m2
13:10 66.0 °F /  18.9 °C 46.8 °F /  8.2 °C 30.16 in /  1021.2 hPa South 6.0 mph /  9.7 km/h 12.0 mph /  19.3 km/h 50 % 0.00 in /  0 mm 758 W/m2
13:15 66.4 °F /  19.1 °C 48.2 °F /  9 °C 30.16 in /  1021.2 hPa SSW 7.0 mph /  11.3 km/h 12.0 mph /  19.3 km/h 52 % 0.00 in /  0 mm 759 W/m2
13:20 66.6 °F /  19.2 °C 48.9 °F /  9.4 °C 30.16 in /  1021.2 hPa SW 7.0 mph /  11.3 km/h 11.0 mph /  17.7 km/h 53 % 0.00 in /  0 mm 747 W/m2
13:25 66.6 °F /  19.2 °C 48.4 °F /  9.1 °C 30.16 in /  1021.2 hPa SSW 7.0 mph /  11.3 km/h 13.0 mph /  20.9 km/h 52 % 0.00 in /  0 mm 763 W/m2
13:30 66.4 °F /  19.1 °C 47.7 °F /  8.7 °C 30.16 in /  1021.2 hPa South 8.0 mph /  12.9 km/h 14.0 mph /  22.5 km/h 51 % 0.00 in /  0 mm 751 W/m2
13:35 66.6 °F /  19.2 °C 47.9 °F /  8.8 °C 30.16 in /  1021.2 hPa SSW 8.0 mph /  12.9 km/h 14.0 mph /  22.5 km/h 51 % 0.00 in /  0 mm 756 W/m2
13:40 66.6 °F /  19.2 °C 46.8 °F /  8.2 °C 30.16 in /  1021.2 hPa SSW 8.0 mph /  12.9 km/h 14.0 mph /  22.5 km/h 49 % 0.00 in /  0 mm 751 W/m2
13:45 66.6 °F /  19.2 °C 47.3 °F /  8.5 °C 30.16 in /  1021.2 hPa SSW 8.0 mph /  12.9 km/h 14.0 mph /  22.5 km/h 50 % 0.00 in /  0 mm 747 W/m2
13:50 66.6 °F /  19.2 °C 46.8 °F /  8.2 °C 30.16 in /  1021.2 hPa SSW 8.0 mph /  12.9 km/h 13.0 mph /  20.9 km/h 49 % 0.00 in /  0 mm 738 W/m2
13:55 66.9 °F /  19.4 °C 46.6 °F /  8.1 °C 30.15 in /  1020.9 hPa South 7.0 mph /  11.3 km/h 12.0 mph /  19.3 km/h 48 % 0.00 in /  0 mm 747 W/m2
14:00 67.3 °F /  19.6 °C 46.9 °F /  8.3 °C 30.15 in /  1020.9 hPa SSW 8.0 mph /  12.9 km/h 13.0 mph /  20.9 km/h 48 % 0.00 in /  0 mm 751 W/m2
14:06 67.5 °F /  19.7 °C 45.4 °F /  7.4 °C 30.15 in /  1020.9 hPa SSW 8.0 mph /  12.9 km/h 13.0 mph /  20.9 km/h 45 % 0.00 in /  0 mm 742 W/m2
14:11 67.5 °F /  19.7 °C 45.4 °F /  7.4 °C 30.15 in /  1020.9 hPa SW 7.0 mph /  11.3 km/h 13.0 mph /  20.9 km/h 45 % 0.00 in /  0 mm 738 W/m2
14:16 67.5 °F /  19.7 °C 45.9 °F /  7.7 °C 30.15 in /  1020.9 hPa SW 7.0 mph /  11.3 km/h 13.0 mph /  20.9 km/h 46 % 0.00 in /  0 mm 726 W/m2
14:18 67.6 °F /  19.8 °C 46.1 °F /  7.8 °C 30.15 in /  1020.9 hPa SW 7.0 mph /  11.3 km/h 13.0 mph /  20.9 km/h 46 % 0.00 in /  0 mm 722 W/m2
14:23 67.6 °F /  19.8 °C 45.5 °F /  7.5 °C 30.14 in /  1020.5 hPa SSW 6.0 mph /  9.7 km/h 12.0 mph /  19.3 km/h 45 % 0.00 in /  0 mm 715 W/m2
14:28 67.6 °F /  19.8 °C 46.1 °F /  7.8 °C 30.14 in /  1020.5 hPa SSW 7.0 mph /  11.3 km/h 12.0 mph /  19.3 km/h 46 % 0.00 in /  0 mm 705 W/m2
14:33 67.6 °F /  19.8 °C 46.7 °F /  8.2 °C 30.14 in /  1020.5 hPa SSW 8.0 mph /  12.9 km/h 13.0 mph /  20.9 km/h 47 % 0.00 in /  0 mm 696 W/m2
14:38 67.6 °F /  19.8 °C 46.7 °F /  8.2 °C 30.14 in /  1020.5 hPa SSW 7.0 mph /  11.3 km/h 13.0 mph /  20.9 km/h 47 % 0.00 in /  0 mm 694 W/m2
14:43 67.8 °F /  19.9 °C 45.7 °F /  7.6 °C 30.14 in /  1020.5 hPa SSW 7.0 mph /  11.3 km/h 13.0 mph /  20.9 km/h 45 % 0.00 in /  0 mm 691 W/m2
14:48 67.8 °F /  19.9 °C 43.9 °F /  6.6 °C 30.14 in /  1020.5 hPa SSW 8.0 mph /  12.9 km/h 13.0 mph /  20.9 km/h 42 % 0.00 in /  0 mm 684 W/m2
14:53 67.6 °F /  19.8 °C 43.1 °F /  6.2 °C 30.14 in /  1020.5 hPa SW 9.0 mph /  14.5 km/h 15.0 mph /  24.1 km/h 41 % 0.00 in /  0 mm 671 W/m2
14:58 68.0 °F /  20 °C 44.7 °F /  7.1 °C 30.14 in /  1020.5 hPa SW 8.0 mph /  12.9 km/h 15.0 mph /  24.1 km/h 43 % 0.00 in /  0 mm 664 W/m2
15:03 68.2 °F /  20.1 °C 44.8 °F /  7.1 °C 30.14 in /  1020.5 hPa SW 8.0 mph /  12.9 km/h 14.0 mph /  22.5 km/h 43 % 0.00 in /  0 mm 656 W/m2
15:08 68.2 °F /  20.1 °C 45.4 °F /  7.4 °C 30.14 in /  1020.5 hPa SW 9.0 mph /  14.5 km/h 15.0 mph /  24.1 km/h 44 % 0.00 in /  0 mm 649 W/m2
15:13 67.8 °F /  19.9 °C 44.5 °F /  6.9 °C 30.14 in /  1020.5 hPa SW 10.0 mph /  16.1 km/h 15.0 mph /  24.1 km/h 43 % 0.00 in /  0 mm 635 W/m2
15:15 67.8 °F /  19.9 °C 45.1 °F /  7.3 °C 30.13 in /  1020.2 hPa SW 10.0 mph /  16.1 km/h 15.0 mph /  24.1 km/h 44 % 0.00 in /  0 mm 640 W/m2
15:20 68.2 °F /  20.1 °C 45.4 °F /  7.4 °C 30.13 in /  1020.2 hPa SSW 9.0 mph /  14.5 km/h 15.0 mph /  24.1 km/h 44 % 0.00 in /  0 mm 621 W/m2
15:25 68.0 °F /  20 °C 46.4 °F /  8 °C 30.13 in /  1020.2 hPa SSW 8.0 mph /  12.9 km/h 15.0 mph /  24.1 km/h 46 % 0.00 in /  0 mm 615 W/m2
15:30 68.2 °F /  20.1 °C 46.0 °F /  7.8 °C 30.13 in /  1020.2 hPa SSW 8.0 mph /  12.9 km/h 15.0 mph /  24.1 km/h 45 % 0.00 in /  0 mm 606 W/m2
15:35 68.2 °F /  20.1 °C 46.0 °F /  7.8 °C 30.13 in /  1020.2 hPa SSW 9.0 mph /  14.5 km/h 16.0 mph /  25.7 km/h 45 % 0.00 in /  0 mm 598 W/m2
15:45 68.2 °F /  20.1 °C 46.0 °F /  7.8 °C 30.13 in /  1020.2 hPa SSW 8.0 mph /  12.9 km/h 15.0 mph /  24.1 km/h 45 % 0.00 in /  0 mm 573 W/m2
15:50 68.2 °F /  20.1 °C 44.8 °F /  7.1 °C 30.13 in /  1020.2 hPa SSW 8.0 mph /  12.9 km/h 14.0 mph /  22.5 km/h 43 % 0.00 in /  0 mm 566 W/m2
15:55 68.4 °F /  20.2 °C 45.0 °F /  7.2 °C 30.13 in /  1020.2 hPa SSW 8.0 mph /  12.9 km/h 14.0 mph /  22.5 km/h 43 % 0.00 in /  0 mm 554 W/m2
16:00 68.2 °F /  20.1 °C 44.8 °F /  7.1 °C 30.13 in /  1020.2 hPa SSW 8.0 mph /  12.9 km/h 14.0 mph /  22.5 km/h 43 % 0.00 in /  0 mm 533 W/m2
16:05 68.0 °F /  20 °C 45.3 °F /  7.4 °C 30.12 in /  1019.9 hPa SSW 9.0 mph /  14.5 km/h 18.0 mph /  29 km/h 44 % 0.00 in /  0 mm 524 W/m2
16:10 67.8 °F /  19.9 °C 45.7 °F /  7.6 °C 30.12 in /  1019.9 hPa SSW 9.0 mph /  14.5 km/h 18.0 mph /  29 km/h 45 % 0.00 in /  0 mm 506 W/m2
16:15 67.6 °F /  19.8 °C 44.9 °F /  7.2 °C 30.12 in /  1019.9 hPa SSW 9.0 mph /  14.5 km/h 13.0 mph /  20.9 km/h 44 % 0.00 in /  0 mm 494 W/m2
16:20 67.8 °F /  19.9 °C 45.7 °F /  7.6 °C 30.12 in /  1019.9 hPa SW 8.0 mph /  12.9 km/h 13.0 mph /  20.9 km/h 45 % 0.00 in /  0 mm 490 W/m2
16:25 68.0 °F /  20 °C 45.9 °F /  7.7 °C 30.12 in /  1019.9 hPa SSW 8.0 mph /  12.9 km/h 16.0 mph /  25.7 km/h 45 % 0.00 in /  0 mm 485 W/m2
16:30 67.8 °F /  19.9 °C 45.1 °F /  7.3 °C 30.12 in /  1019.9 hPa South 9.0 mph /  14.5 km/h 16.0 mph /  25.7 km/h 44 % 0.00 in /  0 mm 476 W/m2
16:35 67.8 °F /  19.9 °C 45.7 °F /  7.6 °C 30.12 in /  1019.9 hPa South 9.0 mph /  14.5 km/h 14.0 mph /  22.5 km/h 45 % 0.00 in /  0 mm 457 W/m2
16:40 67.8 °F /  19.9 °C 45.7 °F /  7.6 °C 30.12 in /  1019.9 hPa SSW 9.0 mph /  14.5 km/h 14.0 mph /  22.5 km/h 45 % 0.00 in /  0 mm 441 W/m2
16:45 67.8 °F /  19.9 °C 46.3 °F /  7.9 °C 30.12 in /  1019.9 hPa SSW 8.0 mph /  12.9 km/h 12.0 mph /  19.3 km/h 46 % 0.00 in /  0 mm 434 W/m2
16:50 68.2 °F /  20.1 °C 44.8 °F /  7.1 °C 30.12 in /  1019.9 hPa SSW 8.0 mph /  12.9 km/h 15.0 mph /  24.1 km/h 43 % 0.00 in /  0 mm 417 W/m2
16:51 68.2 °F /  20.1 °C 45.4 °F /  7.4 °C 30.12 in /  1019.9 hPa SSW 8.0 mph /  12.9 km/h 15.0 mph /  24.1 km/h 44 % 0.00 in /  0 mm 415 W/m2
16:56 68.0 °F /  20 °C 45.9 °F /  7.7 °C 30.12 in /  1019.9 hPa SSW 8.0 mph /  12.9 km/h 15.0 mph /  24.1 km/h 45 % 0.00 in /  0 mm 403 W/m2
17:01 68.2 °F /  20.1 °C 46.0 °F /  7.8 °C 30.12 in /  1019.9 hPa SSW 7.0 mph /  11.3 km/h 11.0 mph /  17.7 km/h 45 % 0.00 in /  0 mm 381 W/m2
17:06 67.8 °F /  19.9 °C 46.3 °F /  7.9 °C 30.12 in /  1019.9 hPa SW 7.0 mph /  11.3 km/h 11.0 mph /  17.7 km/h 46 % 0.00 in /  0 mm 362 W/m2
17:11 68.0 °F /  20 °C 46.4 °F /  8 °C 30.11 in /  1019.5 hPa SW 7.0 mph /  11.3 km/h 11.0 mph /  17.7 km/h 46 % 0.00 in /  0 mm 352 W/m2
17:16 67.8 °F /  19.9 °C 46.3 °F /  7.9 °C 30.11 in /  1019.5 hPa SW 7.0 mph /  11.3 km/h 13.0 mph /  20.9 km/h 46 % 0.00 in /  0 mm 334 W/m2
17:21 68.0 °F /  20 °C 45.9 °F /  7.7 °C 30.11 in /  1019.5 hPa SSW 6.0 mph /  9.7 km/h 13.0 mph /  20.9 km/h 45 % 0.00 in /  0 mm 318 W/m2
17:26 67.8 °F /  19.9 °C 45.7 °F /  7.6 °C 30.11 in /  1019.5 hPa SSW 6.0 mph /  9.7 km/h 11.0 mph /  17.7 km/h 45 % 0.00 in /  0 mm 306 W/m2
17:31 67.6 °F /  19.8 °C 46.1 °F /  7.8 °C 30.11 in /  1019.5 hPa SSW 7.0 mph /  11.3 km/h 11.0 mph /  17.7 km/h 46 % 0.00 in /  0 mm 281 W/m2
17:36 67.5 °F /  19.7 °C 45.9 °F /  7.7 °C 30.11 in /  1019.5 hPa SSW 6.0 mph /  9.7 km/h 10.0 mph /  16.1 km/h 46 % 0.00 in /  0 mm 269 W/m2
17:41 67.6 °F /  19.8 °C 46.7 °F /  8.2 °C 30.11 in /  1019.5 hPa SSW 5.0 mph /  8 km/h 10.0 mph /  16.1 km/h 47 % 0.00 in /  0 mm 251 W/m2
17:46 67.6 °F /  19.8 °C 46.1 °F /  7.8 °C 30.11 in /  1019.5 hPa SSW 6.0 mph /  9.7 km/h 11.0 mph /  17.7 km/h 46 % 0.00 in /  0 mm 244 W/m2
17:51 67.5 °F /  19.7 °C 46.5 °F /  8.1 °C 30.11 in /  1019.5 hPa SSW 7.0 mph /  11.3 km/h 11.0 mph /  17.7 km/h 47 % 0.00 in /  0 mm 232 W/m2
17:53 67.5 °F /  19.7 °C 46.5 °F /  8.1 °C 30.11 in /  1019.5 hPa SSW 7.0 mph /  11.3 km/h 11.0 mph /  17.7 km/h 47 % 0.00 in /  0 mm 225 W/m2
17:58 67.5 °F /  19.7 °C 45.4 °F /  7.4 °C 30.11 in /  1019.5 hPa SSW 6.0 mph /  9.7 km/h 9.0 mph /  14.5 km/h 45 % 0.00 in /  0 mm 214 W/m2
18:03 67.3 °F /  19.6 °C 45.8 °F /  7.7 °C 30.11 in /  1019.5 hPa SSW 5.0 mph /  8 km/h 8.0 mph /  12.9 km/h 46 % 0.00 in /  0 mm 200 W/m2
18:08 67.3 °F /  19.6 °C 45.2 °F /  7.3 °C 30.11 in /  1019.5 hPa SSW 6.0 mph /  9.7 km/h 10.0 mph /  16.1 km/h 45 % 0.00 in /  0 mm 188 W/m2
18:13 66.9 °F /  19.4 °C 45.5 °F /  7.5 °C 30.11 in /  1019.5 hPa SSW 6.0 mph /  9.7 km/h 10.0 mph /  16.1 km/h 46 % 0.00 in /  0 mm 176 W/m2
18:18 66.9 °F /  19.4 °C 44.9 °F /  7.2 °C 30.11 in /  1019.5 hPa SSW 6.0 mph /  9.7 km/h 9.0 mph /  14.5 km/h 45 % 0.00 in /  0 mm 165 W/m2
18:23 66.7 °F /  19.3 °C 44.7 °F /  7.1 °C 30.11 in /  1019.5 hPa SSW 5.0 mph /  8 km/h 9.0 mph /  14.5 km/h 45 % 0.00 in /  0 mm 155 W/m2
18:28 66.7 °F /  19.3 °C 44.7 °F /  7.1 °C 30.11 in /  1019.5 hPa SW 5.0 mph /  8 km/h 9.0 mph /  14.5 km/h 45 % 0.00 in /  0 mm 144 W/m2
18:33 66.6 °F /  19.2 °C 44.0 °F /  6.7 °C 30.11 in /  1019.5 hPa SW 5.0 mph /  8 km/h 9.0 mph /  14.5 km/h 44 % 0.00 in /  0 mm 130 W/m2
18:39 66.4 °F /  19.1 °C 44.4 °F /  6.9 °C 30.11 in /  1019.5 hPa SW 5.0 mph /  8 km/h 9.0 mph /  14.5 km/h 45 % 0.00 in /  0 mm 120 W/m2
18:44 66.4 °F /  19.1 °C 44.4 °F /  6.9 °C 30.11 in /  1019.5 hPa SW 6.0 mph /  9.7 km/h 9.0 mph /  14.5 km/h 45 % 0.00 in /  0 mm 107 W/m2
18:49 66.0 °F /  18.9 °C 44.6 °F /  7 °C 30.11 in /  1019.5 hPa SW 5.0 mph /  8 km/h 8.0 mph /  12.9 km/h 46 % 0.00 in /  0 mm 90 W/m2
18:54 65.8 °F /  18.8 °C 45.0 °F /  7.2 °C 30.11 in /  1019.5 hPa SSW 4.0 mph /  6.4 km/h 7.0 mph /  11.3 km/h 47 % 0.00 in /  0 mm 83 W/m2
18:59 65.5 °F /  18.6 °C 44.7 °F /  7.1 °C 30.11 in /  1019.5 hPa SSW 6.0 mph /  9.7 km/h 9.0 mph /  14.5 km/h 47 % 0.00 in /  0 mm 72 W/m2
19:04 65.3 °F /  18.5 °C 44.5 °F /  6.9 °C 30.11 in /  1019.5 hPa SSW 6.0 mph /  9.7 km/h 9.0 mph /  14.5 km/h 47 % 0.00 in /  0 mm 62 W/m2
19:09 65.1 °F /  18.4 °C 44.9 °F /  7.2 °C 30.11 in /  1019.5 hPa SSW 5.0 mph /  8 km/h 8.0 mph /  12.9 km/h 48 % 0.00 in /  0 mm 53 W/m2
19:14 64.9 °F /  18.3 °C 44.8 °F /  7.1 °C 30.11 in /  1019.5 hPa SSW 5.0 mph /  8 km/h 9.0 mph /  14.5 km/h 48 % 0.00 in /  0 mm 44 W/m2
19:17 64.8 °F /  18.2 °C 44.6 °F /  7 °C 30.11 in /  1019.5 hPa SSW 5.0 mph /  8 km/h 9.0 mph /  14.5 km/h 48 % 0.00 in /  0 mm 40 W/m2
19:22 64.6 °F /  18.1 °C 45.0 °F /  7.2 °C 30.11 in /  1019.5 hPa SSW 5.0 mph /  8 km/h 9.0 mph /  14.5 km/h 49 % 0.00 in /  0 mm 33 W/m2
19:27 64.2 °F /  17.9 °C 44.6 °F /  7 °C 30.11 in /  1019.5 hPa SSW 5.0 mph /  8 km/h 9.0 mph /  14.5 km/h 49 % 0.00 in /  0 mm 25 W/m2
19:32 64.0 °F /  17.8 °C 44.5 °F /  6.9 °C 30.11 in /  1019.5 hPa SSW 3.0 mph /  4.8 km/h 7.0 mph /  11.3 km/h 49 % 0.00 in /  0 mm 19 W/m2
19:37 63.9 °F /  17.7 °C 44.3 °F /  6.8 °C 30.11 in /  1019.5 hPa SSW 2.0 mph /  3.2 km/h 6.0 mph /  9.7 km/h 49 % 0.00 in /  0 mm 16 W/m2
19:42 63.7 °F /  17.6 °C 44.7 °F /  7.1 °C 30.11 in /  1019.5 hPa SSW 1.0 mph /  1.6 km/h 4.0 mph /  6.4 km/h 50 % 0.00 in /  0 mm 12 W/m2
19:47 63.3 °F /  17.4 °C 43.8 °F /  6.6 °C 30.11 in /  1019.5 hPa SSW 1.0 mph /  1.6 km/h 4.0 mph /  6.4 km/h 49 % 0.00 in /  0 mm 9 W/m2
19:52 62.8 °F /  17.1 °C 43.9 °F /  6.6 °C 30.11 in /  1019.5 hPa South 2.0 mph /  3.2 km/h 5.0 mph /  8 km/h 50 % 0.00 in /  0 mm 7 W/m2
19:57 62.4 °F /  16.9 °C 43.5 °F /  6.4 °C 30.11 in /  1019.5 hPa South 2.0 mph /  3.2 km/h 5.0 mph /  8 km/h 50 % 0.00 in /  0 mm 0 W/m2
20:02 62.1 °F /  16.7 °C 43.7 °F /  6.5 °C 30.11 in /  1019.5 hPa South 1.0 mph /  1.6 km/h 5.0 mph /  8 km/h 51 % 0.00 in /  0 mm 0 W/m2
20:07 61.5 °F /  16.4 °C 43.7 °F /  6.5 °C 30.11 in /  1019.5 hPa Calm   1.0 mph /  1.6 km/h 52 % 0.00 in /  0 mm 0 W/m2
20:12 61.0 °F /  16.1 °C 43.7 °F /  6.5 °C 30.11 in /  1019.5 hPa Calm   1.0 mph /  1.6 km/h 53 % 0.00 in /  0 mm 0 W/m2
20:17 60.4 °F /  15.8 °C 43.7 °F /  6.5 °C 30.12 in /  1019.9 hPa Calm   1.0 mph /  1.6 km/h 54 % 0.00 in /  0 mm 0 W/m2
20:22 59.9 °F /  15.5 °C 43.7 °F /  6.5 °C 30.12 in /  1019.9 hPa Calm   3.0 mph /  4.8 km/h 55 % 0.00 in /  0 mm 0 W/m2
20:27 59.4 °F /  15.2 °C 44.1 °F /  6.7 °C 30.12 in /  1019.9 hPa Calm   3.0 mph /  4.8 km/h 57 % 0.00 in /  0 mm 0 W/m2
20:32 58.8 °F /  14.9 °C 44.1 °F /  6.7 °C 30.12 in /  1019.9 hPa Calm   2.0 mph /  3.2 km/h 58 % 0.00 in /  0 mm 0 W/m2
20:37 58.3 °F /  14.6 °C 43.6 °F /  6.4 °C 30.12 in /  1019.9 hPa South 1.0 mph /  1.6 km/h 4.0 mph /  6.4 km/h 58 % 0.00 in /  0 mm 0 W/m2
20:42 57.9 °F /  14.4 °C 43.7 °F /  6.5 °C 30.12 in /  1019.9 hPa South 1.0 mph /  1.6 km/h 4.0 mph /  6.4 km/h 59 % 0.00 in /  0 mm 0 W/m2
20:47 57.6 °F /  14.2 °C 43.8 °F /  6.6 °C 30.12 in /  1019.9 hPa Calm     60 % 0.00 in /  0 mm 0 W/m2
20:52 57.0 °F /  13.9 °C 43.3 °F /  6.3 °C 30.12 in /  1019.9 hPa Calm     60 % 0.00 in /  0 mm 0 W/m2
20:57 56.7 °F /  13.7 °C 43.8 °F /  6.6 °C 30.12 in /  1019.9 hPa Calm     62 % 0.00 in /  0 mm 0 W/m2
21:02 56.5 °F /  13.6 °C 44.0 °F /  6.7 °C 30.12 in /  1019.9 hPa Calm     63 % 0.00 in /  0 mm 0 W/m2
21:07 55.9 °F /  13.3 °C 43.9 °F /  6.6 °C 30.12 in /  1019.9 hPa Calm   1.0 mph /  1.6 km/h 64 % 0.00 in /  0 mm 0 W/m2
21:12 55.6 °F /  13.1 °C 43.6 °F /  6.4 °C 30.12 in /  1019.9 hPa Calm   1.0 mph /  1.6 km/h 64 % 0.00 in /  0 mm 0 W/m2
21:17 55.2 °F /  12.9 °C 44.1 °F /  6.7 °C 30.12 in /  1019.9 hPa Calm   1.0 mph /  1.6 km/h 66 % 0.00 in /  0 mm 0 W/m2
21:22 54.9 °F /  12.7 °C 43.7 °F /  6.5 °C 30.12 in /  1019.9 hPa Calm   2.0 mph /  3.2 km/h 66 % 0.00 in /  0 mm 0 W/m2
21:27 54.3 °F /  12.4 °C 43.2 °F /  6.2 °C 30.12 in /  1019.9 hPa Calm   2.0 mph /  3.2 km/h 66 % 0.00 in /  0 mm 0 W/m2
21:32 54.1 °F /  12.3 °C 43.4 °F /  6.3 °C 30.12 in /  1019.9 hPa Calm   1.0 mph /  1.6 km/h 67 % 0.00 in /  0 mm 0 W/m2
21:37 53.8 °F /  12.1 °C 43.5 °F /  6.4 °C 30.12 in /  1019.9 hPa Calm   2.0 mph /  3.2 km/h 68 % 0.00 in /  0 mm 0 W/m2
21:42 53.4 °F /  11.9 °C 43.1 °F /  6.2 °C 30.12 in /  1019.9 hPa South 1.0 mph /  1.6 km/h 3.0 mph /  4.8 km/h 68 % 0.00 in /  0 mm 0 W/m2
21:47 53.2 °F /  11.8 °C 43.3 °F /  6.3 °C 30.12 in /  1019.9 hPa SSW 1.0 mph /  1.6 km/h 5.0 mph /  8 km/h 69 % 0.00 in /  0 mm 0 W/m2
21:52 53.1 °F /  11.7 °C 43.2 °F /  6.2 °C 30.12 in /  1019.9 hPa SW 1.0 mph /  1.6 km/h 5.0 mph /  8 km/h 69 % 0.00 in /  0 mm 0 W/m2
21:57 52.9 °F /  11.6 °C 43.0 °F /  6.1 °C 30.12 in /  1019.9 hPa Calm   4.0 mph /  6.4 km/h 69 % 0.00 in /  0 mm 0 W/m2
22:03 52.7 °F /  11.5 °C 42.8 °F /  6 °C 30.12 in /  1019.9 hPa Calm   5.0 mph /  8 km/h 69 % 0.00 in /  0 mm 0 W/m2
22:08 52.7 °F /  11.5 °C 42.8 °F /  6 °C 30.12 in /  1019.9 hPa SSW 1.0 mph /  1.6 km/h 6.0 mph /  9.7 km/h 69 % 0.00 in /  0 mm 0 W/m2
22:13 52.7 °F /  11.5 °C 42.8 °F /  6 °C 30.12 in /  1019.9 hPa SSW 1.0 mph /  1.6 km/h 6.0 mph /  9.7 km/h 69 % 0.00 in /  0 mm 0 W/m2
22:18 52.5 °F /  11.4 °C 43.0 °F /  6.1 °C 30.12 in /  1019.9 hPa SW 1.0 mph /  1.6 km/h 5.0 mph /  8 km/h 70 % 0.00 in /  0 mm 0 W/m2
22:23 52.2 °F /  11.2 °C 42.7 °F /  5.9 °C 30.11 in /  1019.5 hPa Calm   2.0 mph /  3.2 km/h 70 % 0.00 in /  0 mm 0 W/m2
22:28 52.0 °F /  11.1 °C 42.5 °F /  5.8 °C 30.11 in /  1019.5 hPa Calm   1.0 mph /  1.6 km/h 70 % 0.00 in /  0 mm 0 W/m2
22:33 51.6 °F /  10.9 °C 42.5 °F /  5.8 °C 30.11 in /  1019.5 hPa Calm   2.0 mph /  3.2 km/h 71 % 0.00 in /  0 mm 0 W/m2
22:38 51.3 °F /  10.7 °C 42.5 °F /  5.8 °C 30.11 in /  1019.5 hPa Calm   2.0 mph /  3.2 km/h 72 % 0.00 in /  0 mm 0 W/m2
22:43 51.1 °F /  10.6 °C 42.7 °F /  5.9 °C 30.11 in /  1019.5 hPa Calm   2.0 mph /  3.2 km/h 73 % 0.00 in /  0 mm 0 W/m2
22:48 50.9 °F /  10.5 °C 42.6 °F /  5.9 °C 30.11 in /  1019.5 hPa Calm   3.0 mph /  4.8 km/h 73 % 0.00 in /  0 mm 0 W/m2
22:53 50.7 °F /  10.4 °C 42.4 °F /  5.8 °C 30.11 in /  1019.5 hPa Calm   3.0 mph /  4.8 km/h 73 % 0.00 in /  0 mm 0 W/m2
22:58 50.5 °F /  10.3 °C 42.6 °F /  5.9 °C 30.11 in /  1019.5 hPa Calm   3.0 mph /  4.8 km/h 74 % 0.00 in /  0 mm 0 W/m2
23:03 50.2 °F /  10.1 °C 42.2 °F /  5.7 °C 30.11 in /  1019.5 hPa Calm   3.0 mph /  4.8 km/h 74 % 0.00 in /  0 mm 0 W/m2
23:08 49.8 °F /  9.9 °C 42.2 °F /  5.7 °C 30.11 in /  1019.5 hPa Calm     75 % 0.00 in /  0 mm 0 W/m2
23:09 49.6 °F /  9.8 °C 42.0 °F /  5.6 °C 30.11 in /  1019.5 hPa Calm     75 % 0.00 in /  0 mm 0 W/m2
23:14 49.5 °F /  9.7 °C 42.2 °F /  5.7 °C 30.11 in /  1019.5 hPa Calm     76 % 0.00 in /  0 mm 0 W/m2
23:19 49.3 °F /  9.6 °C 42.0 °F /  5.6 °C 30.11 in /  1019.5 hPa Calm     76 % 0.00 in /  0 mm 0 W/m2
23:24 49.1 °F /  9.5 °C 42.2 °F /  5.7 °C 30.11 in /  1019.5 hPa Calm     77 % 0.00 in /  0 mm 0 W/m2
23:29 48.9 °F /  9.4 °C 42.0 °F /  5.6 °C 30.11 in /  1019.5 hPa Calm     77 % 0.00 in /  0 mm 0 W/m2
23:34 48.7 °F /  9.3 °C 41.8 °F /  5.4 °C 30.11 in /  1019.5 hPa Calm   1.0 mph /  1.6 km/h 77 % 0.00 in /  0 mm 0 W/m2
23:39 48.6 °F /  9.2 °C 42.0 °F /  5.6 °C 30.11 in /  1019.5 hPa Calm   1.0 mph /  1.6 km/h 78 % 0.00 in /  0 mm 0 W/m2
23:44 48.4 °F /  9.1 °C 41.8 °F /  5.4 °C 30.11 in /  1019.5 hPa SW 1.0 mph /  1.6 km/h 4.0 mph /  6.4 km/h 78 % 0.00 in /  0 mm 0 W/m2
23:49 48.2 °F /  9 °C 42.0 °F /  5.6 °C 30.11 in /  1019.5 hPa SW 1.0 mph /  1.6 km/h 4.0 mph /  6.4 km/h 79 % 0.00 in /  0 mm 0 W/m2
23:54 48.0 °F /  8.9 °C 41.8 °F /  5.4 °C 30.11 in /  1019.5 hPa Calm     79 % 0.00 in /  0 mm 0 W/m2
23:59 47.8 °F /  8.8 °C 41.6 °F /  5.3 °C 30.11 in /  1019.5 hPa Calm   2.0 mph /  3.2 km/h 79 % 0.00 in /  0 mm 0 W/m2
Delerius-Weather
Compliments of Weather Underground - 2.25 mb

Data updates at regular intervals.